Hamaritha — PF2437 — position and weather

sailwx.info

Track history (hours):
 
Tides and Currents Weather Stations Pressure Air Temp Water Temp Dewpoint Dewpoint Depression Visibility Wind Speed Wind Dir Waves Ship Positions

Hamaritha

Last reported at 2018-Jan-19 14:41 UTC. Time now 2018-Jan-20 23:12 UTC.
Position N 51°54' E 005°32'.

Length 86 m.

Type: Ship. MMSI: 244700691.

Date/timePositionNaut miles runAvg speedWind from/ knotsBaromVisibWave heightAir tempDewpointWater temp
2018-Jan-19 14:41N 51°54' E 005°32'1 5.9
2018-Jan-19 14:28N 51°53' E 005°30'3 5.2
2018-Jan-19 13:50N 51°52' E 005°25'2 5.6
2018-Jan-19 13:30N 51°50' E 005°24'3 5.2
2018-Jan-19 13:00N 51°48' E 005°21'3 5.1
2018-Jan-19 12:30N 51°49' E 005°17'5 5.5
2018-Jan-19 11:40N 51°49' E 005°09'1 5.7
2018-Jan-19 11:30N 51°49' E 005°08'3 5.5
2018-Jan-19 10:59N 51°49' E 005°03'3 6.0
2018-Jan-19 10:30N 51°49' E 004°59'3 6.4
2018-Jan-19 10:00N 51°49' E 004°54'3 6.6
2018-Jan-19 09:30N 51°49' E 004°48'3 6.1
2018-Jan-19 09:00N 51°49' E 004°43'3 6.6
2018-Jan-19 08:30N 51°48' E 004°38'0 0.8
2018-Jan-19 08:00N 51°48' E 004°38'0 0.0
2018-Jan-19 07:30N 51°48' E 004°38'0 0.0
2018-Jan-19 07:00N 51°48' E 004°38'0 0.0
2018-Jan-19 06:29N 51°48' E 004°38'0 0.0
2018-Jan-19 06:00N 51°48' E 004°38'2 4.3
2018-Jan-19 05:30N 51°46' E 004°38'4 7.1
2018-Jan-19 05:00N 51°42' E 004°35'2 4.4
2018-Jan-19 04:30N 51°42' E 004°32'0 0.0
2018-Jan-19 04:00N 51°42' E 004°32'0 0.0
2018-Jan-19 03:25N 51°42' E 004°32'0 0.0
2018-Jan-19 03:00N 51°42' E 004°32'0 0.0
2018-Jan-19 02:25N 51°42' E 004°32'0 0.0
2018-Jan-19 02:00N 51°42' E 004°32'0 0.0
2018-Jan-19 01:30N 51°42' E 004°32'0 0.0
2018-Jan-19 00:59N 51°42' E 004°32'0 0.0
2018-Jan-19 00:30N 51°42' E 004°32'0 0.1
2018-Jan-19 00:00N 51°42' E 004°32'2 4.3
2018-Jan-18 23:30N 51°42' E 004°29'3 5.5
2018-Jan-18 22:59N 51°42' E 004°24'13 7.4
2018-Jan-18 21:10N 51°30' E 004°13'3 7.2
2018-Jan-18 20:43N 51°27' E 004°14'1 5.4
2018-Jan-18 20:30N 51°26' E 004°14'5 8.2
2018-Jan-18 19:52N 51°21' E 004°18'3 9.3
2018-Jan-18 19:30N 51°18' E 004°20'4 8.2
2018-Jan-18 19:00N 51°15' E 004°24'0 0.7
2018-Jan-18 18:30N 51°14' E 004°24'2 4.8
2018-Jan-18 18:01N 51°12' E 004°22'510.8
2018-Jan-18 17:30N 51°07' E 004°19'0 0.0
2018-Jan-18 12:28N 51°07' E 004°19'2 0.8
2018-Jan-18 10:32N 51°09' E 004°20'1 5.7
2018-Jan-18 10:18N 51°10' E 004°20'2 5.6
2018-Jan-18 10:00N 51°12' E 004°20'3 5.0
2018-Jan-18 09:30N 51°13' E 004°24'1 2.5
2018-Jan-18 09:00N 51°15' E 004°24'0 0.3
2018-Jan-18 08:30N 51°15' E 004°24'0 0.1
2018-Jan-18 08:00N 51°15' E 004°24'2 3.8
2018-Jan-18 07:30N 51°15' E 004°21'4 7.0
2018-Jan-18 07:00N 51°19' E 004°19'6 6.4
2018-Jan-18 06:04N 51°24' E 004°14'1 7.2
2018-Jan-18 05:59N 51°24' E 004°14'  
2018-Jan-12 14:59N 51°13' E 006°42'0 0.0
2018-Jan-12 14:30N 51°13' E 006°42'0 0.0
2018-Jan-12 14:00N 51°13' E 006°42'0 0.0
2018-Jan-12 13:30N 51°13' E 006°42'0 0.0
2018-Jan-12 13:00N 51°13' E 006°42'0 0.0
2018-Jan-12 12:30N 51°13' E 006°42'0 0.0
2018-Jan-12 12:00N 51°13' E 006°42'0 0.0
2018-Jan-12 11:30N 51°13' E 006°42'0 0.0
2018-Jan-12 11:00N 51°13' E 006°42'0 0.0
2018-Jan-12 10:30N 51°13' E 006°42'0 0.0
2018-Jan-12 10:00N 51°13' E 006°42'0 0.0
2018-Jan-12 09:29N 51°13' E 006°42'0 0.0
2018-Jan-12 09:00N 51°13' E 006°42'0 0.0
2018-Jan-12 08:30N 51°13' E 006°42'0 0.0
2018-Jan-12 08:00N 51°13' E 006°42'0 0.0
2018-Jan-12 07:30N 51°13' E 006°42'0 0.0
2018-Jan-12 07:00N 51°13' E 006°42'0 0.0
2018-Jan-12 06:30N 51°13' E 006°42'0 0.0
2018-Jan-12 06:00N 51°13' E 006°42'0 0.0
2018-Jan-12 05:30N 51°13' E 006°42'0 0.0
2018-Jan-12 05:00N 51°13' E 006°42'0 0.0
2018-Jan-12 04:30N 51°13' E 006°42'0 0.0
2018-Jan-12 04:00N 51°13' E 006°42'0 0.0
2018-Jan-12 03:30N 51°13' E 006°42'0 0.0
2018-Jan-12 03:00N 51°13' E 006°42'0 0.0
2018-Jan-12 02:29N 51°13' E 006°42'0 0.0
2018-Jan-12 02:00N 51°13' E 006°42'0 0.0
2018-Jan-12 01:30N 51°13' E 006°42'0 0.0
2018-Jan-12 01:00N 51°13' E 006°42'0 0.0
2018-Jan-12 00:30N 51°13' E 006°42'0 0.0
2018-Jan-12 00:00N 51°13' E 006°42'0 0.0
2018-Jan-11 23:30N 51°13' E 006°42'1 1.3
2018-Jan-11 23:00N 51°13' E 006°43'2 4.2
2018-Jan-11 22:29N 51°14' E 006°46'3 5.6
2018-Jan-11 21:59N 51°16' E 006°43'3 5.6
2018-Jan-11 21:23N 51°19' E 006°44'3 5.9
2018-Jan-11 20:57N 51°21' E 006°41'2 3.6
2018-Jan-11 20:30N 51°22' E 006°41'3 5.5
2018-Jan-11 20:00N 51°24' E 006°45'3 5.5
2018-Jan-11 19:30N 51°26' E 006°43'2 4.3
2018-Jan-11 19:00N 51°27' E 006°46'12 4.4
2018-Jan-11 16:16N 51°32' E 007°03'2 4.2
2018-Jan-11 15:54N 51°33' E 007°06'1 2.4
2018-Jan-11 15:30N 51°33' E 007°07'0 0.0
2018-Jan-11 15:00N 51°33' E 007°07'0 0.0
2018-Jan-11 14:26N 51°33' E 007°07'0 0.0
2018-Jan-11 13:57N 51°33' E 007°07'0 0.0
2018-Jan-11 13:30N 51°33' E 007°07'0 0.0
2018-Jan-11 13:00N 51°33' E 007°07'0 0.0
2018-Jan-11 12:28N 51°33' E 007°07'0 0.0
2018-Jan-11 11:56N 51°33' E 007°07'0 0.0
2018-Jan-11 11:30N 51°33' E 007°07'0 0.0
2018-Jan-11 11:00N 51°33' E 007°07'0 0.0
2018-Jan-11 10:22N 51°33' E 007°07'0 0.0
2018-Jan-11 09:59N 51°33' E 007°07'0 0.0
2018-Jan-11 09:30N 51°33' E 007°07'0 0.0
2018-Jan-11 09:00N 51°33' E 007°07'0 0.0
2018-Jan-11 08:30N 51°33' E 007°07'0 0.0
2018-Jan-11 07:58N 51°33' E 007°07'0 0.0
2018-Jan-11 07:30N 51°33' E 007°07'0 0.0
2018-Jan-11 06:58N 51°33' E 007°07'0 0.0
2018-Jan-11 06:29N 51°33' E 007°07'0 0.0
2018-Jan-11 06:00N 51°33' E 007°07'0 0.0
2018-Jan-11 05:30N 51°33' E 007°07'0 0.0
2018-Jan-11 05:00N 51°33' E 007°07'0 0.0
2018-Jan-11 04:30N 51°33' E 007°07'0 0.0
2018-Jan-11 04:00N 51°33' E 007°07'0 0.0
2018-Jan-11 03:30N 51°33' E 007°07'0 0.0
2018-Jan-11 03:00N 51°33' E 007°07'0 0.0
2018-Jan-11 02:30N 51°33' E 007°07'0 0.0
2018-Jan-11 02:00N 51°33' E 007°07'0 0.0
2018-Jan-11 01:30N 51°33' E 007°07'0 0.0
2018-Jan-11 01:00N 51°33' E 007°07'0 0.0
2018-Jan-11 00:30N 51°33' E 007°07'0 0.0
2018-Jan-11 00:00N 51°33' E 007°07'0 0.1
2018-Jan-10 23:30N 51°33' E 007°07'0 0.1
2018-Jan-10 23:00N 51°33' E 007°07'0 0.0
2018-Jan-10 22:30N 51°33' E 007°07'0 0.0
2018-Jan-10 22:00N 51°33' E 007°07'0 0.0
2018-Jan-10 21:29N 51°33' E 007°07'13 3.8
2018-Jan-10 18:09N 51°28' E 006°48'1 4.8
2018-Jan-10 17:57N 51°27' E 006°47'1 1.5
2018-Jan-10 17:30N 51°27' E 006°46'2 3.3
2018-Jan-10 17:00N 51°27' E 006°44'2 4.3
2018-Jan-10 16:30N 51°28' E 006°41'2 3.1
2018-Jan-10 16:00N 51°30' E 006°42'1 2.9
2018-Jan-10 15:30N 51°31' E 006°43'2 4.3
2018-Jan-10 15:00N 51°33' E 006°41'2 3.5
2018-Jan-10 14:30N 51°35' E 006°39'2 4.5
2018-Jan-10 14:00N 51°35' E 006°36'3 5.2
2018-Jan-10 13:30N 51°37' E 006°35'17 3.9
2018-Jan-10 09:09N 51°49' E 006°15'1 4.8
2018-Jan-10 09:00N 51°50' E 006°14'2 4.8
2018-Jan-10 08:30N 51°50' E 006°10'2 4.9
2018-Jan-10 08:00N 51°51' E 006°07'2 4.6
2018-Jan-10 07:30N 51°52' E 006°03'2 4.5
2018-Jan-10 07:00N 51°53' E 005°60'6 4.0
2018-Jan-10 05:31N 51°52' E 005°50'0 5.8
2018-Jan-10 05:30N 51°52' E 005°50'3 5.5
2018-Jan-10 05:00N 51°53' E 005°46'3 5.3
2018-Jan-10 04:30N 51°54' E 005°42'3 5.6
2018-Jan-10 04:00N 51°54' E 005°38'4 0.5
2018-Jan-09 20:12N 51°54' E 005°31'9 3.9
2018-Jan-09 17:58N 51°58' E 005°19'0 0.2
2018-Jan-09 17:29N 51°58' E 005°19'3 6.3
2018-Jan-09 16:57N 51°59' E 005°14'4 8.2
2018-Jan-09 16:31N 52°01' E 005°09'4 7.3
2018-Jan-09 16:01N 52°04' E 005°05'4 7.1
2018-Jan-09 15:30N 52°07' E 005°04'4 7.1
2018-Jan-09 14:59N 52°10' E 004°60'  
Track history (hours):
 
Tides and Currents Weather Stations Pressure Air Temp Water Temp Dewpoint Dewpoint Depression Visibility Wind Speed Wind Dir Waves Ship Positions

Hamaritha

Last reported at 2018-Jan-19 14:41 UTC. Time now 2018-Jan-20 23:12 UTC.
Position N 51°54' E 005°32'.

Length 86 m.

Type: Ship. MMSI: 244700691.

Date/timePositionNaut miles runAvg speedWind from/ knotsBaromVisibWave heightAir tempDewpointWater temp
2018-Jan-19 14:41N 51°54' E 005°32'1 5.9
2018-Jan-19 14:28N 51°53' E 005°30'3 5.2
2018-Jan-19 13:50N 51°52' E 005°25'2 5.6
2018-Jan-19 13:30N 51°50' E 005°24'3 5.2
2018-Jan-19 13:00N 51°48' E 005°21'3 5.1
2018-Jan-19 12:30N 51°49' E 005°17'5 5.5
2018-Jan-19 11:40N 51°49' E 005°09'1 5.7
2018-Jan-19 11:30N 51°49' E 005°08'3 5.5
2018-Jan-19 10:59N 51°49' E 005°03'3 6.0
2018-Jan-19 10:30N 51°49' E 004°59'3 6.4
2018-Jan-19 10:00N 51°49' E 004°54'3 6.6
2018-Jan-19 09:30N 51°49' E 004°48'3 6.1
2018-Jan-19 09:00N 51°49' E 004°43'3 6.6
2018-Jan-19 08:30N 51°48' E 004°38'0 0.8
2018-Jan-19 08:00N 51°48' E 004°38'0 0.0
2018-Jan-19 07:30N 51°48' E 004°38'0 0.0
2018-Jan-19 07:00N 51°48' E 004°38'0 0.0
2018-Jan-19 06:29N 51°48' E 004°38'0 0.0
2018-Jan-19 06:00N 51°48' E 004°38'2 4.3
2018-Jan-19 05:30N 51°46' E 004°38'4 7.1
2018-Jan-19 05:00N 51°42' E 004°35'2 4.4
2018-Jan-19 04:30N 51°42' E 004°32'0 0.0
2018-Jan-19 04:00N 51°42' E 004°32'0 0.0
2018-Jan-19 03:25N 51°42' E 004°32'0 0.0
2018-Jan-19 03:00N 51°42' E 004°32'0 0.0
2018-Jan-19 02:25N 51°42' E 004°32'0 0.0
2018-Jan-19 02:00N 51°42' E 004°32'0 0.0
2018-Jan-19 01:30N 51°42' E 004°32'0 0.0
2018-Jan-19 00:59N 51°42' E 004°32'0 0.0
2018-Jan-19 00:30N 51°42' E 004°32'0 0.1
2018-Jan-19 00:00N 51°42' E 004°32'2 4.3
2018-Jan-18 23:30N 51°42' E 004°29'3 5.5
2018-Jan-18 22:59N 51°42' E 004°24'13 7.4
2018-Jan-18 21:10N 51°30' E 004°13'3 7.2
2018-Jan-18 20:43N 51°27' E 004°14'1 5.4
2018-Jan-18 20:30N 51°26' E 004°14'5 8.2
2018-Jan-18 19:52N 51°21' E 004°18'3 9.3
2018-Jan-18 19:30N 51°18' E 004°20'4 8.2
2018-Jan-18 19:00N 51°15' E 004°24'0 0.7
2018-Jan-18 18:30N 51°14' E 004°24'2 4.8
2018-Jan-18 18:01N 51°12' E 004°22'510.8
2018-Jan-18 17:30N 51°07' E 004°19'0 0.0
2018-Jan-18 12:28N 51°07' E 004°19'2 0.8
2018-Jan-18 10:32N 51°09' E 004°20'1 5.7
2018-Jan-18 10:18N 51°10' E 004°20'2 5.6
2018-Jan-18 10:00N 51°12' E 004°20'3 5.0
2018-Jan-18 09:30N 51°13' E 004°24'1 2.5
2018-Jan-18 09:00N 51°15' E 004°24'0 0.3
2018-Jan-18 08:30N 51°15' E 004°24'0 0.1
2018-Jan-18 08:00N 51°15' E 004°24'2 3.8
2018-Jan-18 07:30N 51°15' E 004°21'4 7.0
2018-Jan-18 07:00N 51°19' E 004°19'6 6.4
2018-Jan-18 06:04N 51°24' E 004°14'1 7.2
2018-Jan-18 05:59N 51°24' E 004°14'  
2018-Jan-12 14:59N 51°13' E 006°42'0 0.0
2018-Jan-12 14:30N 51°13' E 006°42'0 0.0
2018-Jan-12 14:00N 51°13' E 006°42'0 0.0
2018-Jan-12 13:30N 51°13' E 006°42'0 0.0
2018-Jan-12 13:00N 51°13' E 006°42'0 0.0
2018-Jan-12 12:30N 51°13' E 006°42'0 0.0
2018-Jan-12 12:00N 51°13' E 006°42'0 0.0
2018-Jan-12 11:30N 51°13' E 006°42'0 0.0
2018-Jan-12 11:00N 51°13' E 006°42'0 0.0
2018-Jan-12 10:30N 51°13' E 006°42'0 0.0
2018-Jan-12 10:00N 51°13' E 006°42'0 0.0
2018-Jan-12 09:29N 51°13' E 006°42'0 0.0
2018-Jan-12 09:00N 51°13' E 006°42'0 0.0
2018-Jan-12 08:30N 51°13' E 006°42'0 0.0
2018-Jan-12 08:00N 51°13' E 006°42'0 0.0
2018-Jan-12 07:30N 51°13' E 006°42'0 0.0
2018-Jan-12 07:00N 51°13' E 006°42'0 0.0
2018-Jan-12 06:30N 51°13' E 006°42'0 0.0
2018-Jan-12 06:00N 51°13' E 006°42'0 0.0
2018-Jan-12 05:30N 51°13' E 006°42'0 0.0
2018-Jan-12 05:00N 51°13' E 006°42'0 0.0
2018-Jan-12 04:30N 51°13' E 006°42'0 0.0
2018-Jan-12 04:00N 51°13' E 006°42'0 0.0
2018-Jan-12 03:30N 51°13' E 006°42'0 0.0
2018-Jan-12 03:00N 51°13' E 006°42'0 0.0
2018-Jan-12 02:29N 51°13' E 006°42'0 0.0
2018-Jan-12 02:00N 51°13' E 006°42'0 0.0
2018-Jan-12 01:30N 51°13' E 006°42'0 0.0
2018-Jan-12 01:00N 51°13' E 006°42'0 0.0
2018-Jan-12 00:30N 51°13' E 006°42'0 0.0
2018-Jan-12 00:00N 51°13' E 006°42'0 0.0
2018-Jan-11 23:30N 51°13' E 006°42'1 1.3
2018-Jan-11 23:00N 51°13' E 006°43'2 4.2
2018-Jan-11 22:29N 51°14' E 006°46'3 5.6
2018-Jan-11 21:59N 51°16' E 006°43'3 5.6
2018-Jan-11 21:23N 51°19' E 006°44'3 5.9
2018-Jan-11 20:57N 51°21' E 006°41'2 3.6
2018-Jan-11 20:30N 51°22' E 006°41'3 5.5
2018-Jan-11 20:00N 51°24' E 006°45'3 5.5
2018-Jan-11 19:30N 51°26' E 006°43'2 4.3
2018-Jan-11 19:00N 51°27' E 006°46'12 4.4
2018-Jan-11 16:16N 51°32' E 007°03'2 4.2
2018-Jan-11 15:54N 51°33' E 007°06'1 2.4
2018-Jan-11 15:30N 51°33' E 007°07'0 0.0
2018-Jan-11 15:00N 51°33' E 007°07'0 0.0
2018-Jan-11 14:26N 51°33' E 007°07'0 0.0
2018-Jan-11 13:57N 51°33' E 007°07'0 0.0
2018-Jan-11 13:30N 51°33' E 007°07'0 0.0
2018-Jan-11 13:00N 51°33' E 007°07'0 0.0
2018-Jan-11 12:28N 51°33' E 007°07'0 0.0
2018-Jan-11 11:56N 51°33' E 007°07'0 0.0
2018-Jan-11 11:30N 51°33' E 007°07'0 0.0
2018-Jan-11 11:00N 51°33' E 007°07'0 0.0
2018-Jan-11 10:22N 51°33' E 007°07'0 0.0
2018-Jan-11 09:59N 51°33' E 007°07'0 0.0
2018-Jan-11 09:30N 51°33' E 007°07'0 0.0
2018-Jan-11 09:00N 51°33' E 007°07'0 0.0
2018-Jan-11 08:30N 51°33' E 007°07'0 0.0
2018-Jan-11 07:58N 51°33' E 007°07'0 0.0
2018-Jan-11 07:30N 51°33' E 007°07'0 0.0
2018-Jan-11 06:58N 51°33' E 007°07'0 0.0
2018-Jan-11 06:29N 51°33' E 007°07'0 0.0
2018-Jan-11 06:00N 51°33' E 007°07'0 0.0
2018-Jan-11 05:30N 51°33' E 007°07'0 0.0
2018-Jan-11 05:00N 51°33' E 007°07'0 0.0
2018-Jan-11 04:30N 51°33' E 007°07'0 0.0
2018-Jan-11 04:00N 51°33' E 007°07'0 0.0
2018-Jan-11 03:30N 51°33' E 007°07'0 0.0
2018-Jan-11 03:00N 51°33' E 007°07'0 0.0
2018-Jan-11 02:30N 51°33' E 007°07'0 0.0
2018-Jan-11 02:00N 51°33' E 007°07'0 0.0
2018-Jan-11 01:30N 51°33' E 007°07'0 0.0
2018-Jan-11 01:00N 51°33' E 007°07'0 0.0
2018-Jan-11 00:30N 51°33' E 007°07'0 0.0
2018-Jan-11 00:00N 51°33' E 007°07'0 0.1
2018-Jan-10 23:30N 51°33' E 007°07'0 0.1
2018-Jan-10 23:00N 51°33' E 007°07'0 0.0
2018-Jan-10 22:30N 51°33' E 007°07'0 0.0
2018-Jan-10 22:00N 51°33' E 007°07'0 0.0
2018-Jan-10 21:29N 51°33' E 007°07'13 3.8
2018-Jan-10 18:09N 51°28' E 006°48'1 4.8
2018-Jan-10 17:57N 51°27' E 006°47'1 1.5
2018-Jan-10 17:30N 51°27' E 006°46'2 3.3
2018-Jan-10 17:00N 51°27' E 006°44'2 4.3
2018-Jan-10 16:30N 51°28' E 006°41'2 3.1
2018-Jan-10 16:00N 51°30' E 006°42'1 2.9
2018-Jan-10 15:30N 51°31' E 006°43'2 4.3
2018-Jan-10 15:00N 51°33' E 006°41'2 3.5
2018-Jan-10 14:30N 51°35' E 006°39'2 4.5
2018-Jan-10 14:00N 51°35' E 006°36'3 5.2
2018-Jan-10 13:30N 51°37' E 006°35'17 3.9
2018-Jan-10 09:09N 51°49' E 006°15'1 4.8
2018-Jan-10 09:00N 51°50' E 006°14'2 4.8
2018-Jan-10 08:30N 51°50' E 006°10'2 4.9
2018-Jan-10 08:00N 51°51' E 006°07'2 4.6
2018-Jan-10 07:30N 51°52' E 006°03'2 4.5
2018-Jan-10 07:00N 51°53' E 005°60'6 4.0
2018-Jan-10 05:31N 51°52' E 005°50'0 5.8
2018-Jan-10 05:30N 51°52' E 005°50'3 5.5
2018-Jan-10 05:00N 51°53' E 005°46'3 5.3
2018-Jan-10 04:30N 51°54' E 005°42'3 5.6
2018-Jan-10 04:00N 51°54' E 005°38'4 0.5
2018-Jan-09 20:12N 51°54' E 005°31'9 3.9
2018-Jan-09 17:58N 51°58' E 005°19'0 0.2
2018-Jan-09 17:29N 51°58' E 005°19'3 6.3
2018-Jan-09 16:57N 51°59' E 005°14'4 8.2
2018-Jan-09 16:31N 52°01' E 005°09'4 7.3
2018-Jan-09 16:01N 52°04' E 005°05'4 7.1
2018-Jan-09 15:30N 52°07' E 005°04'4 7.1
2018-Jan-09 14:59N 52°10' E 004°60'  

Dump ship's entire track history